sensor_id;sensor_type;location;lat;lon;timestamp;temperature;humidity
47765;DHT22;33529;49.242;8.670;2022-12-18T00:01:30;-9.40;99.90
47765;DHT22;33529;49.242;8.670;2022-12-18T00:03:58;-9.40;99.90
47765;DHT22;33529;49.242;8.670;2022-12-18T00:06:27;-9.30;99.90
47765;DHT22;33529;49.242;8.670;2022-12-18T00:08:55;-9.20;99.90
47765;DHT22;33529;49.242;8.670;2022-12-18T00:11:25;-9.20;99.90
47765;DHT22;33529;49.242;8.670;2022-12-18T00:13:54;-9.10;99.90
47765;DHT22;33529;49.242;8.670;2022-12-18T00:16:23;-9.10;99.90
47765;DHT22;33529;49.242;8.670;2022-12-18T00:18:52;-9.10;99.90
47765;DHT22;33529;49.242;8.670;2022-12-18T00:21:20;-9.00;99.90
47765;DHT22;33529;49.242;8.670;2022-12-18T00:23:48;-9.00;99.90
47765;DHT22;33529;49.242;8.670;2022-12-18T00:26:21;-9.00;99.90
47765;DHT22;33529;49.242;8.670;2022-12-18T00:28:51;-9.00;99.90
47765;DHT22;33529;49.242;8.670;2022-12-18T00:31:23;-9.10;99.90
47765;DHT22;33529;49.242;8.670;2022-12-18T00:33:54;-9.20;99.90
47765;DHT22;33529;49.242;8.670;2022-12-18T00:36:24;-9.20;99.90
47765;DHT22;33529;49.242;8.670;2022-12-18T00:38:53;-9.20;99.90
47765;DHT22;33529;49.242;8.670;2022-12-18T00:41:20;-9.10;99.90
47765;DHT22;33529;49.242;8.670;2022-12-18T00:44:08;-9.10;99.90
47765;DHT22;33529;49.242;8.670;2022-12-18T00:46:35;-9.00;99.90
47765;DHT22;33529;49.242;8.670;2022-12-18T00:49:03;-9.00;99.90
47765;DHT22;33529;49.242;8.670;2022-12-18T00:51:30;-9.00;99.90
47765;DHT22;33529;49.242;8.670;2022-12-18T00:53:57;-9.00;99.90
47765;DHT22;33529;49.242;8.670;2022-12-18T00:56:24;-8.90;99.90
47765;DHT22;33529;49.242;8.670;2022-12-18T00:58:52;-9.00;99.90
47765;DHT22;33529;49.242;8.670;2022-12-18T01:01:19;-9.00;99.90
47765;DHT22;33529;49.242;8.670;2022-12-18T01:03:46;-9.10;99.90
47765;DHT22;33529;49.242;8.670;2022-12-18T01:06:14;-9.20;99.90
47765;DHT22;33529;49.242;8.670;2022-12-18T01:08:42;-9.20;99.90
47765;DHT22;33529;49.242;8.670;2022-12-18T01:11:14;-9.20;99.90
47765;DHT22;33529;49.242;8.670;2022-12-18T01:13:41;-9.20;99.90
47765;DHT22;33529;49.242;8.670;2022-12-18T01:16:12;-9.20;99.90
47765;DHT22;33529;49.242;8.670;2022-12-18T01:18:39;-9.10;99.90
47765;DHT22;33529;49.242;8.670;2022-12-18T01:21:12;-9.10;99.90
47765;DHT22;33529;49.242;8.670;2022-12-18T01:23:39;-9.10;99.90
47765;DHT22;33529;49.242;8.670;2022-12-18T01:26:08;-9.10;99.90
47765;DHT22;33529;49.242;8.670;2022-12-18T01:28:36;-9.20;99.90
47765;DHT22;33529;49.242;8.670;2022-12-18T01:31:25;-9.20;99.90
47765;DHT22;33529;49.242;8.670;2022-12-18T01:33:54;-9.20;99.90
47765;DHT22;33529;49.242;8.670;2022-12-18T01:36:23;-9.20;99.90
47765;DHT22;33529;49.242;8.670;2022-12-18T01:38:52;-9.20;99.90
47765;DHT22;33529;49.242;8.670;2022-12-18T01:41:22;-9.20;99.90
47765;DHT22;33529;49.242;8.670;2022-12-18T01:43:57;-9.20;99.90
47765;DHT22;33529;49.242;8.670;2022-12-18T01:46:25;-9.20;99.90
47765;DHT22;33529;49.242;8.670;2022-12-18T01:48:58;-9.20;99.90
47765;DHT22;33529;49.242;8.670;2022-12-18T01:51:27;-9.10;99.90
47765;DHT22;33529;49.242;8.670;2022-12-18T01:53:54;-9.00;99.90
47765;DHT22;33529;49.242;8.670;2022-12-18T01:56:21;-8.90;99.90
47765;DHT22;33529;49.242;8.670;2022-12-18T01:59:04;-8.90;99.90
47765;DHT22;33529;49.242;8.670;2022-12-18T02:01:32;-9.00;99.90
47765;DHT22;33529;49.242;8.670;2022-12-18T02:04:23;-9.00;99.90
47765;DHT22;33529;49.242;8.670;2022-12-18T02:07:05;-9.00;99.90
47765;DHT22;33529;49.242;8.670;2022-12-18T02:09:44;-9.10;99.90
47765;DHT22;33529;49.242;8.670;2022-12-18T02:12:24;-9.10;99.90
47765;DHT22;33529;49.242;8.670;2022-12-18T02:28:11;-9.10;99.90
47765;DHT22;33529;49.242;8.670;2022-12-18T02:30:40;-9.00;99.90
47765;DHT22;33529;49.242;8.670;2022-12-18T02:33:10;-8.80;99.90
47765;DHT22;33529;49.242;8.670;2022-12-18T02:35:40;-8.50;99.90
47765;DHT22;33529;49.242;8.670;2022-12-18T02:38:07;-8.30;99.90
47765;DHT22;33529;49.242;8.670;2022-12-18T02:40:37;-8.10;99.90
47765;DHT22;33529;49.242;8.670;2022-12-18T02:43:10;-8.00;99.90
47765;DHT22;33529;49.242;8.670;2022-12-18T02:45:54;-7.80;99.90
47765;DHT22;33529;49.242;8.670;2022-12-18T02:48:28;-7.80;99.90
47765;DHT22;33529;49.242;8.670;2022-12-18T02:54:13;-7.70;99.90
47765;DHT22;33529;49.242;8.670;2022-12-18T02:56:49;-7.60;99.90
47765;DHT22;33529;49.242;8.670;2022-12-18T02:59:24;-7.60;99.90
47765;DHT22;33529;49.242;8.670;2022-12-18T03:01:58;-7.50;99.90
47765;DHT22;33529;49.242;8.670;2022-12-18T03:04:50;-7.60;99.90
47765;DHT22;33529;49.242;8.670;2022-12-18T03:07:28;-7.70;99.90
47765;DHT22;33529;49.242;8.670;2022-12-18T03:10:00;-7.80;99.90
47765;DHT22;33529;49.242;8.670;2022-12-18T03:12:31;-8.00;99.90
47765;DHT22;33529;49.242;8.670;2022-12-18T03:15:01;-7.90;99.90
47765;DHT22;33529;49.242;8.670;2022-12-18T03:17:32;-7.90;99.90
47765;DHT22;33529;49.242;8.670;2022-12-18T03:20:10;-8.00;99.90
47765;DHT22;33529;49.242;8.670;2022-12-18T03:22:43;-7.90;99.90
47765;DHT22;33529;49.242;8.670;2022-12-18T03:25:14;-7.90;99.90
47765;DHT22;33529;49.242;8.670;2022-12-18T03:27:48;-7.90;99.90
47765;DHT22;33529;49.242;8.670;2022-12-18T03:30:16;-7.70;99.90
47765;DHT22;33529;49.242;8.670;2022-12-18T03:32:58;-7.70;99.90
47765;DHT22;33529;49.242;8.670;2022-12-18T03:35:31;-7.90;99.90
47765;DHT22;33529;49.242;8.670;2022-12-18T03:37:59;-8.00;99.90
47765;DHT22;33529;49.242;8.670;2022-12-18T03:40:37;-8.10;99.90
47765;DHT22;33529;49.242;8.670;2022-12-18T03:45:54;-8.30;99.90
47765;DHT22;33529;49.242;8.670;2022-12-18T03:51:05;-8.30;99.90
47765;DHT22;33529;49.242;8.670;2022-12-18T03:54:00;-8.50;99.90
47765;DHT22;33529;49.242;8.670;2022-12-18T03:56:54;-8.50;99.90
47765;DHT22;33529;49.242;8.670;2022-12-18T03:59:24;-8.40;99.90
47765;DHT22;33529;49.242;8.670;2022-12-18T04:01:54;-8.30;99.90
47765;DHT22;33529;49.242;8.670;2022-12-18T04:04:24;-8.10;99.90
47765;DHT22;33529;49.242;8.670;2022-12-18T04:06:52;-7.90;99.90
47765;DHT22;33529;49.242;8.670;2022-12-18T04:09:20;-7.90;99.90
47765;DHT22;33529;49.242;8.670;2022-12-18T04:11:48;-7.90;99.90
47765;DHT22;33529;49.242;8.670;2022-12-18T04:14:15;-7.80;99.90
47765;DHT22;33529;49.242;8.670;2022-12-18T04:16:45;-7.80;99.90
47765;DHT22;33529;49.242;8.670;2022-12-18T04:19:15;-7.70;99.90
47765;DHT22;33529;49.242;8.670;2022-12-18T04:21:43;-7.80;99.90
47765;DHT22;33529;49.242;8.670;2022-12-18T04:24:12;-7.70;99.90
47765;DHT22;33529;49.242;8.670;2022-12-18T04:26:46;-7.60;99.90
47765;DHT22;33529;49.242;8.670;2022-12-18T04:29:18;-7.60;99.90
47765;DHT22;33529;49.242;8.670;2022-12-18T04:31:45;-7.60;99.90
47765;DHT22;33529;49.242;8.670;2022-12-18T04:34:11;-7.50;99.90
47765;DHT22;33529;49.242;8.670;2022-12-18T04:36:46;-7.50;99.90
47765;DHT22;33529;49.242;8.670;2022-12-18T04:39:14;-7.50;99.90
47765;DHT22;33529;49.242;8.670;2022-12-18T04:41:41;-7.50;99.90
47765;DHT22;33529;49.242;8.670;2022-12-18T04:44:09;-7.40;99.90
47765;DHT22;33529;49.242;8.670;2022-12-18T04:46:35;-7.40;99.90
47765;DHT22;33529;49.242;8.670;2022-12-18T04:49:02;-7.40;99.90
47765;DHT22;33529;49.242;8.670;2022-12-18T04:51:29;-7.30;99.90
47765;DHT22;33529;49.242;8.670;2022-12-18T04:53:56;-7.30;99.90
47765;DHT22;33529;49.242;8.670;2022-12-18T04:56:22;-7.30;99.90
47765;DHT22;33529;49.242;8.670;2022-12-18T04:58:49;-7.40;99.90
47765;DHT22;33529;49.242;8.670;2022-12-18T05:01:17;-7.30;99.90
47765;DHT22;33529;49.242;8.670;2022-12-18T05:03:44;-7.30;99.90
47765;DHT22;33529;49.242;8.670;2022-12-18T05:06:11;-7.20;99.90
47765;DHT22;33529;49.242;8.670;2022-12-18T05:08:38;-7.20;99.90
47765;DHT22;33529;49.242;8.670;2022-12-18T05:11:09;-7.10;99.90
47765;DHT22;33529;49.242;8.670;2022-12-18T05:13:36;-7.10;99.90
47765;DHT22;33529;49.242;8.670;2022-12-18T05:16:05;-7.10;99.90
47765;DHT22;33529;49.242;8.670;2022-12-18T05:18:32;-7.10;99.90
47765;DHT22;33529;49.242;8.670;2022-12-18T05:20:59;-7.00;99.90
47765;DHT22;33529;49.242;8.670;2022-12-18T05:23:26;-7.00;99.90
47765;DHT22;33529;49.242;8.670;2022-12-18T05:25:58;-6.90;99.90
47765;DHT22;33529;49.242;8.670;2022-12-18T05:28:27;-6.90;99.90
47765;DHT22;33529;49.242;8.670;2022-12-18T05:30:58;-6.90;99.90
47765;DHT22;33529;49.242;8.670;2022-12-18T05:33:28;-6.90;99.90
47765;DHT22;33529;49.242;8.670;2022-12-18T05:35:57;-6.80;99.90
47765;DHT22;33529;49.242;8.670;2022-12-18T05:38:25;-6.80;99.90
47765;DHT22;33529;49.242;8.670;2022-12-18T05:40:52;-6.80;99.90
47765;DHT22;33529;49.242;8.670;2022-12-18T05:43:20;-6.80;99.90
47765;DHT22;33529;49.242;8.670;2022-12-18T05:45:51;-6.80;99.90
47765;DHT22;33529;49.242;8.670;2022-12-18T05:48:18;-6.80;99.90
47765;DHT22;33529;49.242;8.670;2022-12-18T05:50:46;-6.80;99.90
47765;DHT22;33529;49.242;8.670;2022-12-18T05:53:16;-6.80;99.90
47765;DHT22;33529;49.242;8.670;2022-12-18T05:55:43;-6.90;99.90
47765;DHT22;33529;49.242;8.670;2022-12-18T05:58:12;-6.90;99.90
47765;DHT22;33529;49.242;8.670;2022-12-18T06:00:42;-6.90;99.90
47765;DHT22;33529;49.242;8.670;2022-12-18T06:03:11;-6.90;99.90
47765;DHT22;33529;49.242;8.670;2022-12-18T06:05:40;-6.90;99.90
47765;DHT22;33529;49.242;8.670;2022-12-18T06:08:08;-6.90;99.90
47765;DHT22;33529;49.242;8.670;2022-12-18T06:10:35;-6.90;99.90
47765;DHT22;33529;49.242;8.670;2022-12-18T06:13:02;-7.00;99.90
47765;DHT22;33529;49.242;8.670;2022-12-18T06:15:29;-6.90;99.90
47765;DHT22;33529;49.242;8.670;2022-12-18T06:17:55;-6.90;99.90
47765;DHT22;33529;49.242;8.670;2022-12-18T06:20:22;-7.00;99.90
47765;DHT22;33529;49.242;8.670;2022-12-18T06:22:51;-7.00;99.90
47765;DHT22;33529;49.242;8.670;2022-12-18T06:25:19;-7.00;99.90
47765;DHT22;33529;49.242;8.670;2022-12-18T06:27:47;-7.00;99.90
47765;DHT22;33529;49.242;8.670;2022-12-18T06:30:14;-7.00;99.90
47765;DHT22;33529;49.242;8.670;2022-12-18T06:32:41;-7.00;99.90
47765;DHT22;33529;49.242;8.670;2022-12-18T06:35:08;-7.00;99.90
47765;DHT22;33529;49.242;8.670;2022-12-18T06:37:35;-7.00;99.90
47765;DHT22;33529;49.242;8.670;2022-12-18T06:40:02;-7.10;99.90
47765;DHT22;33529;49.242;8.670;2022-12-18T06:42:29;-7.10;99.90
47765;DHT22;33529;49.242;8.670;2022-12-18T06:44:56;-7.10;99.90
47765;DHT22;33529;49.242;8.670;2022-12-18T06:47:23;-7.10;99.90
47765;DHT22;33529;49.242;8.670;2022-12-18T06:49:49;-7.10;99.90
47765;DHT22;33529;49.242;8.670;2022-12-18T06:52:16;-7.10;99.90
47765;DHT22;33529;49.242;8.670;2022-12-18T06:54:43;-7.10;99.90
47765;DHT22;33529;49.242;8.670;2022-12-18T06:57:10;-7.20;99.90
47765;DHT22;33529;49.242;8.670;2022-12-18T06:59:36;-7.20;99.90
47765;DHT22;33529;49.242;8.670;2022-12-18T07:02:03;-7.20;99.90
47765;DHT22;33529;49.242;8.670;2022-12-18T07:04:31;-7.20;99.90
47765;DHT22;33529;49.242;8.670;2022-12-18T07:06:58;-7.20;99.90
47765;DHT22;33529;49.242;8.670;2022-12-18T07:09:25;-7.20;99.90
47765;DHT22;33529;49.242;8.670;2022-12-18T07:11:52;-7.20;99.90
47765;DHT22;33529;49.242;8.670;2022-12-18T07:14:19;-7.30;99.90
47765;DHT22;33529;49.242;8.670;2022-12-18T07:16:46;-7.30;99.90
47765;DHT22;33529;49.242;8.670;2022-12-18T07:19:13;-7.30;99.90
47765;DHT22;33529;49.242;8.670;2022-12-18T07:21:39;-7.30;99.90
47765;DHT22;33529;49.242;8.670;2022-12-18T07:24:07;-7.30;99.90
47765;DHT22;33529;49.242;8.670;2022-12-18T07:26:33;-7.30;99.90
47765;DHT22;33529;49.242;8.670;2022-12-18T07:29:00;-7.30;99.90
47765;DHT22;33529;49.242;8.670;2022-12-18T07:31:27;-7.30;99.90
47765;DHT22;33529;49.242;8.670;2022-12-18T07:33:54;-7.30;99.90
47765;DHT22;33529;49.242;8.670;2022-12-18T07:36:22;-7.30;99.90
47765;DHT22;33529;49.242;8.670;2022-12-18T07:38:50;-7.20;99.90
47765;DHT22;33529;49.242;8.670;2022-12-18T07:41:18;-7.30;99.90
47765;DHT22;33529;49.242;8.670;2022-12-18T07:43:45;-7.20;99.90
47765;DHT22;33529;49.242;8.670;2022-12-18T07:46:13;-7.20;99.90
47765;DHT22;33529;49.242;8.670;2022-12-18T07:48:41;-7.30;99.90
47765;DHT22;33529;49.242;8.670;2022-12-18T07:51:13;-7.30;99.90
47765;DHT22;33529;49.242;8.670;2022-12-18T07:53:41;-7.30;99.90
47765;DHT22;33529;49.242;8.670;2022-12-18T07:56:10;-7.30;99.90
47765;DHT22;33529;49.242;8.670;2022-12-18T07:58:56;-7.20;99.90
47765;DHT22;33529;49.242;8.670;2022-12-18T08:01:23;-7.20;99.90
47765;DHT22;33529;49.242;8.670;2022-12-18T08:03:51;-7.20;99.90
47765;DHT22;33529;49.242;8.670;2022-12-18T08:06:18;-7.10;99.90
47765;DHT22;33529;49.242;8.670;2022-12-18T08:08:54;-7.10;99.90
47765;DHT22;33529;49.242;8.670;2022-12-18T08:11:21;-7.10;99.90
47765;DHT22;33529;49.242;8.670;2022-12-18T08:13:49;-7.00;99.90
47765;DHT22;33529;49.242;8.670;2022-12-18T08:16:16;-7.00;99.90
47765;DHT22;33529;49.242;8.670;2022-12-18T08:18:42;-7.00;99.90
47765;DHT22;33529;49.242;8.670;2022-12-18T08:23:39;-7.00;99.90
47765;DHT22;33529;49.242;8.670;2022-12-18T08:26:09;-6.90;99.90
47765;DHT22;33529;49.242;8.670;2022-12-18T08:28:37;-6.90;99.90
47765;DHT22;33529;49.242;8.670;2022-12-18T08:31:04;-6.90;99.90
47765;DHT22;33529;49.242;8.670;2022-12-18T08:33:31;-6.80;99.90
47765;DHT22;33529;49.242;8.670;2022-12-18T08:36:01;-6.80;99.90
47765;DHT22;33529;49.242;8.670;2022-12-18T08:38:28;-6.80;99.90
47765;DHT22;33529;49.242;8.670;2022-12-18T08:41:09;-6.80;99.90
47765;DHT22;33529;49.242;8.670;2022-12-18T08:43:37;-6.70;99.90
47765;DHT22;33529;49.242;8.670;2022-12-18T08:46:24;-6.70;99.90
47765;DHT22;33529;49.242;8.670;2022-12-18T08:48:52;-6.70;99.90
47765;DHT22;33529;49.242;8.670;2022-12-18T08:51:20;-6.70;99.90
47765;DHT22;33529;49.242;8.670;2022-12-18T08:53:47;-6.60;99.90
47765;DHT22;33529;49.242;8.670;2022-12-18T08:56:14;-6.50;99.90
47765;DHT22;33529;49.242;8.670;2022-12-18T08:58:41;-6.60;99.90
47765;DHT22;33529;49.242;8.670;2022-12-18T09:01:10;-6.50;99.90
47765;DHT22;33529;49.242;8.670;2022-12-18T09:03:38;-6.50;99.90
47765;DHT22;33529;49.242;8.670;2022-12-18T09:06:06;-6.40;99.90
47765;DHT22;33529;49.242;8.670;2022-12-18T09:08:32;-6.40;99.90
47765;DHT22;33529;49.242;8.670;2022-12-18T09:11:00;-6.30;99.90
47765;DHT22;33529;49.242;8.670;2022-12-18T09:13:26;-6.20;99.90
47765;DHT22;33529;49.242;8.670;2022-12-18T09:15:54;-6.20;99.90
47765;DHT22;33529;49.242;8.670;2022-12-18T09:18:23;-6.10;99.90
47765;DHT22;33529;49.242;8.670;2022-12-18T09:20:50;-6.10;99.90
47765;DHT22;33529;49.242;8.670;2022-12-18T09:23:20;-6.00;99.90
47765;DHT22;33529;49.242;8.670;2022-12-18T09:25:47;-6.00;99.90
47765;DHT22;33529;49.242;8.670;2022-12-18T09:28:16;-6.00;99.90
47765;DHT22;33529;49.242;8.670;2022-12-18T09:30:46;-5.90;99.90
47765;DHT22;33529;49.242;8.670;2022-12-18T09:33:13;-5.80;99.90
47765;DHT22;33529;49.242;8.670;2022-12-18T09:35:41;-5.80;99.90
47765;DHT22;33529;49.242;8.670;2022-12-18T09:38:12;-5.70;99.90
47765;DHT22;33529;49.242;8.670;2022-12-18T09:40:55;-5.70;99.90
47765;DHT22;33529;49.242;8.670;2022-12-18T09:43:33;-5.60;99.90
47765;DHT22;33529;49.242;8.670;2022-12-18T09:46:06;-5.50;99.90
47765;DHT22;33529;49.242;8.670;2022-12-18T09:48:41;-5.40;99.90
47765;DHT22;33529;49.242;8.670;2022-12-18T09:51:15;-5.30;99.90
47765;DHT22;33529;49.242;8.670;2022-12-18T09:53:47;-5.20;99.90
47765;DHT22;33529;49.242;8.670;2022-12-18T09:56:19;-5.20;99.90
47765;DHT22;33529;49.242;8.670;2022-12-18T10:01:25;-5.10;99.90
47765;DHT22;33529;49.242;8.670;2022-12-18T10:04:05;-5.00;99.90
47765;DHT22;33529;49.242;8.670;2022-12-18T10:09:27;-4.90;99.90
47765;DHT22;33529;49.242;8.670;2022-12-18T10:12:28;-4.90;99.90
47765;DHT22;33529;49.242;8.670;2022-12-18T10:15:28;-4.80;99.90
47765;DHT22;33529;49.242;8.670;2022-12-18T10:28:18;-4.50;99.90
47765;DHT22;33529;49.242;8.670;2022-12-18T10:30:46;-4.30;99.90
47765;DHT22;33529;49.242;8.670;2022-12-18T10:33:19;-4.20;99.90
47765;DHT22;33529;49.242;8.670;2022-12-18T10:35:48;-4.10;99.90
47765;DHT22;33529;49.242;8.670;2022-12-18T10:40:53;-3.90;99.90
47765;DHT22;33529;49.242;8.670;2022-12-18T10:43:27;-3.80;99.90
47765;DHT22;33529;49.242;8.670;2022-12-18T10:46:20;-3.80;99.90
47765;DHT22;33529;49.242;8.670;2022-12-18T10:48:51;-3.70;99.90
47765;DHT22;33529;49.242;8.670;2022-12-18T10:51:29;-3.60;99.90
47765;DHT22;33529;49.242;8.670;2022-12-18T10:54:01;-3.60;99.90
47765;DHT22;33529;49.242;8.670;2022-12-18T10:56:33;-3.50;99.90
47765;DHT22;33529;49.242;8.670;2022-12-18T10:59:04;-3.50;99.90
47765;DHT22;33529;49.242;8.670;2022-12-18T11:01:49;-3.40;99.90
47765;DHT22;33529;49.242;8.670;2022-12-18T11:04:22;-3.40;99.90
47765;DHT22;33529;49.242;8.670;2022-12-18T11:07:02;-3.30;99.90
47765;DHT22;33529;49.242;8.670;2022-12-18T11:12:18;-3.40;99.90
47765;DHT22;33529;49.242;8.670;2022-12-18T11:14:52;-3.30;99.90
47765;DHT22;33529;49.242;8.670;2022-12-18T11:20:00;-3.20;99.90
47765;DHT22;33529;49.242;8.670;2022-12-18T11:22:33;-3.10;99.90
47765;DHT22;33529;49.242;8.670;2022-12-18T11:25:05;-3.10;99.90
47765;DHT22;33529;49.242;8.670;2022-12-18T11:27:59;-3.10;99.90
47765;DHT22;33529;49.242;8.670;2022-12-18T11:30:34;-3.10;99.90
47765;DHT22;33529;49.242;8.670;2022-12-18T11:33:09;-3.00;99.90
47765;DHT22;33529;49.242;8.670;2022-12-18T11:35:58;-2.90;99.90
47765;DHT22;33529;49.242;8.670;2022-12-18T11:38:28;-3.00;99.90
47765;DHT22;33529;49.242;8.670;2022-12-18T11:43:59;-2.80;99.90
47765;DHT22;33529;49.242;8.670;2022-12-18T11:46:37;-2.80;99.90
47765;DHT22;33529;49.242;8.670;2022-12-18T11:49:14;-2.80;99.90
47765;DHT22;33529;49.242;8.670;2022-12-18T11:54:19;-2.70;99.90
47765;DHT22;33529;49.242;8.670;2022-12-18T12:04:46;-2.60;99.90
47765;DHT22;33529;49.242;8.670;2022-12-18T12:21:42;-2.30;99.90
47765;DHT22;33529;49.242;8.670;2022-12-18T12:24:51;-2.20;99.90
47765;DHT22;33529;49.242;8.670;2022-12-18T12:30:38;-2.20;99.90
47765;DHT22;33529;49.242;8.670;2022-12-18T12:33:21;-2.30;99.90
47765;DHT22;33529;49.242;8.670;2022-12-18T12:38:27;-2.20;99.90
47765;DHT22;33529;49.242;8.670;2022-12-18T12:41:14;-2.20;99.90
47765;DHT22;33529;49.242;8.670;2022-12-18T12:44:07;-2.10;99.90
47765;DHT22;33529;49.242;8.670;2022-12-18T12:46:37;-2.10;99.90
47765;DHT22;33529;49.242;8.670;2022-12-18T12:49:27;-2.00;99.90
47765;DHT22;33529;49.242;8.670;2022-12-18T12:52:12;-2.00;99.90
47765;DHT22;33529;49.242;8.670;2022-12-18T12:54:40;-1.80;99.90
47765;DHT22;33529;49.242;8.670;2022-12-18T13:00:01;-1.80;99.90
47765;DHT22;33529;49.242;8.670;2022-12-18T13:08:06;-1.70;99.90
47765;DHT22;33529;49.242;8.670;2022-12-18T13:10:39;-1.60;99.90
47765;DHT22;33529;49.242;8.670;2022-12-18T13:13:09;-1.70;99.90
47765;DHT22;33529;49.242;8.670;2022-12-18T13:15:49;-1.70;99.90
47765;DHT22;33529;49.242;8.670;2022-12-18T13:18:29;-1.70;99.90
47765;DHT22;33529;49.242;8.670;2022-12-18T13:23:35;-1.70;99.90
47765;DHT22;33529;49.242;8.670;2022-12-18T13:31:00;-1.70;99.90
47765;DHT22;33529;49.242;8.670;2022-12-18T13:33:37;-1.70;99.90
47765;DHT22;33529;49.242;8.670;2022-12-18T13:36:32;-1.60;99.90
47765;DHT22;33529;49.242;8.670;2022-12-18T13:41:49;-1.60;99.90
47765;DHT22;33529;49.242;8.670;2022-12-18T13:44:32;-1.60;99.90
47765;DHT22;33529;49.242;8.670;2022-12-18T13:47:31;-1.60;99.90
47765;DHT22;33529;49.242;8.670;2022-12-18T13:49:59;-1.70;99.90
47765;DHT22;33529;49.242;8.670;2022-12-18T13:52:36;-1.80;99.90
47765;DHT22;33529;49.242;8.670;2022-12-18T13:55:06;-1.80;99.90
47765;DHT22;33529;49.242;8.670;2022-12-18T13:57:38;-1.80;99.90
47765;DHT22;33529;49.242;8.670;2022-12-18T14:00:28;-1.90;99.90
47765;DHT22;33529;49.242;8.670;2022-12-18T14:02:57;-1.90;99.90
47765;DHT22;33529;49.242;8.670;2022-12-18T14:05:26;-1.90;99.90
47765;DHT22;33529;49.242;8.670;2022-12-18T14:07:54;-2.00;99.90
47765;DHT22;33529;49.242;8.670;2022-12-18T14:10:22;-1.90;99.90
47765;DHT22;33529;49.242;8.670;2022-12-18T14:13:14;-2.00;99.90
47765;DHT22;33529;49.242;8.670;2022-12-18T14:15:45;-2.00;99.90
47765;DHT22;33529;49.242;8.670;2022-12-18T14:18:21;-2.00;99.90
47765;DHT22;33529;49.242;8.670;2022-12-18T14:20:55;-1.80;99.90
47765;DHT22;33529;49.242;8.670;2022-12-18T14:23:36;-1.80;99.90
47765;DHT22;33529;49.242;8.670;2022-12-18T14:26:27;-1.90;99.90
47765;DHT22;33529;49.242;8.670;2022-12-18T14:28:56;-1.90;99.90
47765;DHT22;33529;49.242;8.670;2022-12-18T14:31:26;-2.00;99.90
47765;DHT22;33529;49.242;8.670;2022-12-18T14:33:53;-2.00;99.90
47765;DHT22;33529;49.242;8.670;2022-12-18T14:36:23;-2.00;99.90
47765;DHT22;33529;49.242;8.670;2022-12-18T14:38:55;-2.00;99.90
47765;DHT22;33529;49.242;8.670;2022-12-18T14:41:23;-2.00;99.90
47765;DHT22;33529;49.242;8.670;2022-12-18T14:43:52;-2.00;99.90
47765;DHT22;33529;49.242;8.670;2022-12-18T14:49:32;-2.20;99.90
47765;DHT22;33529;49.242;8.670;2022-12-18T14:52:13;-2.20;99.90
47765;DHT22;33529;49.242;8.670;2022-12-18T14:54:46;-2.30;99.90
47765;DHT22;33529;49.242;8.670;2022-12-18T14:57:35;-2.30;99.90
47765;DHT22;33529;49.242;8.670;2022-12-18T15:00:07;-2.30;99.90
47765;DHT22;33529;49.242;8.670;2022-12-18T15:02:41;-2.30;99.90
47765;DHT22;33529;49.242;8.670;2022-12-18T15:07:43;-2.50;99.90
47765;DHT22;33529;49.242;8.670;2022-12-18T15:10:25;-2.50;99.90
47765;DHT22;33529;49.242;8.670;2022-12-18T15:20:49;-2.60;99.90
47765;DHT22;33529;49.242;8.670;2022-12-18T15:23:29;-2.60;99.90
47765;DHT22;33529;49.242;8.670;2022-12-18T15:26:03;-2.60;99.90
47765;DHT22;33529;49.242;8.670;2022-12-18T15:28:45;-2.60;99.90
47765;DHT22;33529;49.242;8.670;2022-12-18T15:33:58;-2.70;99.90
47765;DHT22;33529;49.242;8.670;2022-12-18T15:36:28;-2.70;99.90
47765;DHT22;33529;49.242;8.670;2022-12-18T15:38:56;-2.70;99.90
47765;DHT22;33529;49.242;8.670;2022-12-18T15:41:33;-2.80;99.90
47765;DHT22;33529;49.242;8.670;2022-12-18T15:44:02;-2.80;99.90
47765;DHT22;33529;49.242;8.670;2022-12-18T15:46:29;-2.80;99.90
47765;DHT22;33529;49.242;8.670;2022-12-18T15:48:58;-2.80;99.90
47765;DHT22;33529;49.242;8.670;2022-12-18T15:51:40;-2.80;99.90
47765;DHT22;33529;49.242;8.670;2022-12-18T15:54:12;-2.80;99.90
47765;DHT22;33529;49.242;8.670;2022-12-18T15:56:40;-2.80;99.90
47765;DHT22;33529;49.242;8.670;2022-12-18T15:59:26;-2.80;99.90
47765;DHT22;33529;49.242;8.670;2022-12-18T16:01:53;-2.80;99.90
47765;DHT22;33529;49.242;8.670;2022-12-18T16:04:21;-2.70;99.90
47765;DHT22;33529;49.242;8.670;2022-12-18T16:06:48;-2.70;99.90
47765;DHT22;33529;49.242;8.670;2022-12-18T16:09:36;-2.70;99.90
47765;DHT22;33529;49.242;8.670;2022-12-18T16:12:03;-2.70;99.90
47765;DHT22;33529;49.242;8.670;2022-12-18T16:14:31;-2.70;99.90
47765;DHT22;33529;49.242;8.670;2022-12-18T16:17:04;-2.70;99.90
47765;DHT22;33529;49.242;8.670;2022-12-18T16:19:32;-2.70;99.90
47765;DHT22;33529;49.242;8.670;2022-12-18T16:21:59;-2.60;99.90
47765;DHT22;33529;49.242;8.670;2022-12-18T16:24:32;-2.60;99.90
47765;DHT22;33529;49.242;8.670;2022-12-18T16:26:59;-2.60;99.90
47765;DHT22;33529;49.242;8.670;2022-12-18T16:29:28;-2.60;99.90
47765;DHT22;33529;49.242;8.670;2022-12-18T16:31:59;-2.60;99.90
47765;DHT22;33529;49.242;8.670;2022-12-18T16:34:27;-2.60;99.90
47765;DHT22;33529;49.242;8.670;2022-12-18T16:37:06;-2.70;99.90
47765;DHT22;33529;49.242;8.670;2022-12-18T16:39:34;-2.60;99.90
47765;DHT22;33529;49.242;8.670;2022-12-18T16:42:19;-2.60;99.90
47765;DHT22;33529;49.242;8.670;2022-12-18T16:44:48;-2.60;99.90
47765;DHT22;33529;49.242;8.670;2022-12-18T16:47:15;-2.60;99.90
47765;DHT22;33529;49.242;8.670;2022-12-18T16:49:43;-2.60;99.90
47765;DHT22;33529;49.242;8.670;2022-12-18T16:52:13;-2.50;99.90
47765;DHT22;33529;49.242;8.670;2022-12-18T16:54:40;-2.50;99.90
47765;DHT22;33529;49.242;8.670;2022-12-18T16:57:15;-2.50;99.90
47765;DHT22;33529;49.242;8.670;2022-12-18T16:59:42;-2.50;99.90
47765;DHT22;33529;49.242;8.670;2022-12-18T17:02:20;-2.50;99.90
47765;DHT22;33529;49.242;8.670;2022-12-18T17:04:52;-2.50;99.90
47765;DHT22;33529;49.242;8.670;2022-12-18T17:07:19;-2.50;99.90
47765;DHT22;33529;49.242;8.670;2022-12-18T17:09:45;-2.40;99.90
47765;DHT22;33529;49.242;8.670;2022-12-18T17:12:12;-2.40;99.90
47765;DHT22;33529;49.242;8.670;2022-12-18T17:14:39;-2.40;99.90
47765;DHT22;33529;49.242;8.670;2022-12-18T17:17:06;-2.40;99.90
47765;DHT22;33529;49.242;8.670;2022-12-18T17:19:50;-2.40;99.90
47765;DHT22;33529;49.242;8.670;2022-12-18T17:22:18;-2.40;99.90
47765;DHT22;33529;49.242;8.670;2022-12-18T17:24:46;-2.50;99.90
47765;DHT22;33529;49.242;8.670;2022-12-18T17:27:13;-2.50;99.90
47765;DHT22;33529;49.242;8.670;2022-12-18T17:29:40;-2.50;99.90
47765;DHT22;33529;49.242;8.670;2022-12-18T17:32:14;-2.60;99.90
47765;DHT22;33529;49.242;8.670;2022-12-18T17:34:41;-2.50;99.90
47765;DHT22;33529;49.242;8.670;2022-12-18T17:37:08;-2.50;99.90
47765;DHT22;33529;49.242;8.670;2022-12-18T17:39:34;-2.60;99.90
47765;DHT22;33529;49.242;8.670;2022-12-18T17:42:01;-2.60;99.90
47765;DHT22;33529;49.242;8.670;2022-12-18T17:44:28;-2.50;99.90
47765;DHT22;33529;49.242;8.670;2022-12-18T17:46:55;-2.60;99.90
47765;DHT22;33529;49.242;8.670;2022-12-18T17:49:22;-2.60;99.90
47765;DHT22;33529;49.242;8.670;2022-12-18T17:51:48;-2.60;99.90
47765;DHT22;33529;49.242;8.670;2022-12-18T17:54:15;-2.60;99.90